Time;durP1;ratioP1;P1;durP2;ratioP2;P2;SDS_P1;SDS_P2;PMS_P1;PMS_P2;Temp;Humidity;BMP_temperature;BMP_pressure;BME280_temperature;BME280_humidity;BME280_pressure;Samples;Min_cycle;Max_cycle;Signal;HPM_P1;HPM_P2
2023/08/09 00:01:49;;;;;;;4.07;1.63;;;;;;;;;;5031066;28;20223;-48
2023/08/09 00:04:15;;;;;;;2.13;1.80;;;;;;;;;;5031076;28;20679;-49
2023/08/09 00:06:41;;;;;;;2.53;1.50;;;;;;;;;;5030838;28;20201;-49
2023/08/09 00:09:07;;;;;;;2.77;2.00;;;;;;;;;;5031021;28;20212;-48
2023/08/09 00:11:33;;;;;;;2.23;1.90;;;;;;;;;;5030864;28;20205;-48
2023/08/09 00:14:00;;;;;;;2.77;1.80;;;;;;;;;;5030775;28;20189;-48
2023/08/09 00:16:26;;;;;;;2.37;1.83;;;;;;;;;;5030733;28;20713;-49
2023/08/09 00:18:52;;;;;;;1.63;1.53;;;;;;;;;;5035238;28;20204;-48
2023/08/09 00:21:18;;;;;;;3.03;1.83;;;;;;;;;;5034923;28;20224;-49
2023/08/09 00:23:44;;;;;;;2.03;1.70;;;;;;;;;;5028956;28;20259;-49
2023/08/09 00:26:10;;;;;;;3.50;1.80;;;;;;;;;;5034966;28;20746;-50
2023/08/09 00:28:36;;;;;;;3.70;1.80;;;;;;;;;;5035029;28;20193;-49
2023/08/09 00:31:03;;;;;;;2.30;1.67;;;;;;;;;;5035167;28;20216;-49
2023/08/09 00:33:29;;;;;;;2.17;1.97;;;;;;;;;;5034821;28;20201;-48
2023/08/09 00:35:55;;;;;;;2.53;1.87;;;;;;;;;;5034617;28;20243;-50
2023/08/09 00:38:21;;;;;;;2.37;1.77;;;;;;;;;;5034840;28;20577;-50
2023/08/09 00:40:47;;;;;;;2.10;1.90;;;;;;;;;;5034943;28;20244;-50
2023/08/09 00:43:13;;;;;;;2.10;1.83;;;;;;;;;;5032999;28;20283;-50
2023/08/09 00:45:42;;;;;;;2.30;2.10;;;;;;;;;;5032821;28;20652;-50
2023/08/09 00:48:10;;;;;;;2.90;2.00;;;;;;;;;;5034490;28;20200;-51
2023/08/09 00:50:37;;;;;;;4.20;2.50;;;;;;;;;;5034906;28;20310;-50
2023/08/09 00:53:04;;;;;;;4.33;2.53;;;;;;;;;;5034801;28;20236;-50
2023/08/09 00:55:30;;;;;;;3.30;2.27;;;;;;;;;;5034464;28;20682;-50
2023/08/09 00:57:56;;;;;;;2.90;2.47;;;;;;;;;;5034505;28;20234;-50
2023/08/09 01:00:22;;;;;;;3.30;2.43;;;;;;;;;;5034700;28;20209;-50
2023/08/09 01:02:48;;;;;;;2.77;2.10;;;;;;;;;;5034411;28;20292;-50
2023/08/09 01:05:16;;;;;;;2.40;2.03;;;;;;;;;;5034419;28;20197;-50
2023/08/09 01:07:45;;;;;;;3.87;2.20;;;;;;;;;;5034204;28;20209;-51
2023/08/09 01:10:15;;;;;;;3.87;2.47;;;;;;;;;;5034224;28;20212;-50
2023/08/09 01:12:42;;;;;;;3.40;2.17;;;;;;;;;;5034070;28;20580;-51
2023/08/09 01:15:09;;;;;;;4.47;2.27;;;;;;;;;;5034290;28;20618;-49
2023/08/09 01:17:35;;;;;;;3.70;2.10;;;;;;;;;;5034110;28;20251;-50
2023/08/09 01:20:04;;;;;;;2.20;2.00;;;;;;;;;;5033988;28;20667;-50
2023/08/09 01:22:35;;;;;;;3.23;2.43;;;;;;;;;;5033898;28;20224;-50
2023/08/09 01:25:06;;;;;;;2.73;2.30;;;;;;;;;;5033988;28;20236;-50
2023/08/09 01:27:32;;;;;;;2.93;2.57;;;;;;;;;;5034049;28;20196;-50
2023/08/09 01:29:59;;;;;;;2.40;2.13;;;;;;;;;;5032599;28;20258;-50
2023/08/09 01:32:25;;;;;;;4.30;2.43;;;;;;;;;;5033746;28;20200;-50
2023/08/09 01:34:51;;;;;;;4.37;2.83;;;;;;;;;;5033978;28;20239;-50
2023/08/09 01:37:21;;;;;;;3.97;2.70;;;;;;;;;;5033728;28;20323;-50
2023/08/09 01:39:50;;;;;;;3.60;2.70;;;;;;;;;;5033776;28;20664;-50
2023/08/09 01:42:17;;;;;;;5.47;3.30;;;;;;;;;;5033787;28;20556;-50
2023/08/09 01:44:43;;;;;;;3.37;3.07;;;;;;;;;;5033484;28;20236;-50
2023/08/09 01:47:11;;;;;;;4.03;3.20;;;;;;;;;;5033425;28;20605;-50
2023/08/09 01:49:44;;;;;;;4.37;3.00;;;;;;;;;;5033254;28;20201;-50
2023/08/09 01:52:11;;;;;;;3.53;2.70;;;;;;;;;;5033538;28;20225;-50
2023/08/09 01:54:37;;;;;;;4.83;3.27;;;;;;;;;;5033545;28;20608;-50
2023/08/09 01:57:03;;;;;;;3.23;2.73;;;;;;;;;;5033410;28;20231;-50
2023/08/09 01:59:31;;;;;;;4.57;2.87;;;;;;;;;;5032788;28;20224;-50
2023/08/09 02:01:57;;;;;;;3.23;2.70;;;;;;;;;;5033181;28;20685;-50
2023/08/09 02:04:24;;;;;;;3.53;3.10;;;;;;;;;;5033237;28;20295;-49
2023/08/09 02:06:50;;;;;;;3.97;3.10;;;;;;;;;;5033288;28;20192;-50
2023/08/09 02:09:16;;;;;;;4.27;3.30;;;;;;;;;;5033137;28;20255;-50
2023/08/09 02:11:42;;;;;;;5.60;3.30;;;;;;;;;;5032991;28;20922;-49
2023/08/09 02:14:08;;;;;;;4.67;3.63;;;;;;;;;;5033203;28;20201;-49
2023/08/09 02:16:35;;;;;;;7.50;3.97;;;;;;;;;;5032883;28;20201;-50
2023/08/09 02:19:01;;;;;;;5.00;3.57;;;;;;;;;;5032972;28;20237;-49
2023/08/09 02:21:27;;;;;;;4.07;3.67;;;;;;;;;;5032807;28;20208;-48
2023/08/09 02:23:53;;;;;;;4.30;3.90;;;;;;;;;;5032781;28;20663;-50
2023/08/09 02:26:21;;;;;;;4.30;3.90;;;;;;;;;;5032997;28;20572;-49
2023/08/09 02:28:48;;;;;;;5.40;4.17;;;;;;;;;;5032874;28;20255;-49
2023/08/09 02:31:14;;;;;;;4.47;4.07;;;;;;;;;;5032780;28;20731;-48
2023/08/09 02:33:42;;;;;;;5.43;4.37;;;;;;;;;;5032571;28;20191;-49
2023/08/09 02:36:08;;;;;;;5.00;4.10;;;;;;;;;;5032736;28;20659;-50
2023/08/09 02:38:34;;;;;;;6.30;4.90;;;;;;;;;;5032493;28;20321;-49
2023/08/09 02:41:00;;;;;;;5.73;4.27;;;;;;;;;;5032199;28;20204;-49
2023/08/09 02:43:26;;;;;;;7.27;4.57;;;;;;;;;;5032454;28;20582;-48
2023/08/09 02:45:53;;;;;;;4.80;4.37;;;;;;;;;;5032548;28;20217;-49
2023/08/09 02:48:19;;;;;;;6.20;4.50;;;;;;;;;;5032505;28;20216;-49
2023/08/09 02:50:47;;;;;;;8.80;4.90;;;;;;;;;;5032341;28;20204;-49
2023/08/09 02:53:14;;;;;;;8.00;6.20;;;;;;;;;;5032361;28;20771;-48
2023/08/09 02:55:40;;;;;;;6.40;5.50;;;;;;;;;;5032166;28;20228;-48
2023/08/09 02:58:06;;;;;;;7.67;5.90;;;;;;;;;;5032359;28;20221;-49
2023/08/09 03:00:33;;;;;;;6.50;5.57;;;;;;;;;;5032153;28;20280;-49
2023/08/09 03:03:00;;;;;;;8.43;6.27;;;;;;;;;;5032201;28;20247;-49
2023/08/09 03:05:26;;;;;;;7.23;5.83;;;;;;;;;;5032016;28;20204;-49
2023/08/09 03:07:54;;;;;;;7.47;5.80;;;;;;;;;;5031985;28;20558;-49
2023/08/09 03:10:20;;;;;;;7.43;6.07;;;;;;;;;;5032057;28;20737;-49
2023/08/09 03:12:47;;;;;;;7.87;6.30;;;;;;;;;;5031889;28;20247;-48
2023/08/09 03:15:13;;;;;;;7.13;6.43;;;;;;;;;;5031842;28;20197;-48
2023/08/09 03:17:39;;;;;;;5.67;4.97;;;;;;;;;;5031707;28;20249;-48
2023/08/09 03:20:14;;;;;;;6.17;5.57;;;;;;;;;;5032109;28;20211;-49
2023/08/09 03:22:41;;;;;;;8.03;6.53;;;;;;;;;;5031645;28;20270;-48
2023/08/09 03:25:08;;;;;;;7.80;6.63;;;;;;;;;;5031743;28;20240;-48
2023/08/09 03:27:35;;;;;;;7.80;6.53;;;;;;;;;;5031859;28;20259;-48
2023/08/09 03:30:01;;;;;;;8.30;7.00;;;;;;;;;;5031614;28;20655;-49
2023/08/09 03:32:27;;;;;;;8.00;7.10;;;;;;;;;;5031377;28;20679;-49
2023/08/09 03:34:53;;;;;;;9.37;7.50;;;;;;;;;;5031693;28;20209;-49
2023/08/09 03:37:19;;;;;;;8.07;6.87;;;;;;;;;;5031552;28;20559;-49
2023/08/09 03:39:45;;;;;;;7.83;6.70;;;;;;;;;;5031426;28;20206;-48
2023/08/09 03:42:13;;;;;;;8.17;7.27;;;;;;;;;;5031467;28;20248;-49
2023/08/09 03:44:39;;;;;;;8.23;7.47;;;;;;;;;;5031429;28;20627;-49
2023/08/09 03:47:05;;;;;;;8.40;7.40;;;;;;;;;;5031470;28;20233;-48
2023/08/09 03:49:31;;;;;;;8.30;7.27;;;;;;;;;;5031222;28;20263;-48
2023/08/09 03:51:57;;;;;;;8.33;7.53;;;;;;;;;;5030529;28;20854;-48
2023/08/09 03:54:23;;;;;;;8.50;7.70;;;;;;;;;;5031304;28;20205;-48
2023/08/09 03:56:49;;;;;;;9.57;8.20;;;;;;;;;;5030860;28;20196;-48
2023/08/09 03:59:16;;;;;;;9.60;7.67;;;;;;;;;;5030570;28;20200;-47
2023/08/09 04:01:42;;;;;;;9.33;7.43;;;;;;;;;;5030180;28;20201;-48
2023/08/09 04:04:08;;;;;;;8.93;8.00;;;;;;;;;;5031137;28;20284;-48
2023/08/09 04:06:34;;;;;;;8.93;7.67;;;;;;;;;;5031241;28;20224;-48
2023/08/09 04:09:00;;;;;;;8.77;7.63;;;;;;;;;;5031171;28;20250;-48
2023/08/09 04:11:26;;;;;;;9.83;7.77;;;;;;;;;;5030851;28;20209;-48
2023/08/09 04:13:53;;;;;;;10.73;9.17;;;;;;;;;;5031041;28;20292;-48
2023/08/09 04:16:20;;;;;;;11.57;8.37;;;;;;;;;;5031157;28;20197;-48
2023/08/09 04:18:46;;;;;;;12.73;8.90;;;;;;;;;;5030667;28;20315;-49
2023/08/09 04:21:12;;;;;;;9.90;8.43;;;;;;;;;;5030969;28;20284;-49
2023/08/09 04:23:38;;;;;;;11.07;7.97;;;;;;;;;;5030755;28;20639;-48
2023/08/09 04:26:04;;;;;;;9.43;8.13;;;;;;;;;;5030962;28;20288;-49
2023/08/09 04:28:30;;;;;;;11.07;8.40;;;;;;;;;;5030818;28;20272;-48
2023/08/09 04:30:56;;;;;;;8.97;7.83;;;;;;;;;;5031035;28;20203;-49
2023/08/09 04:33:24;;;;;;;11.07;8.57;;;;;;;;;;5030860;28;20200;-49
2023/08/09 04:35:50;;;;;;;9.70;8.70;;;;;;;;;;5030962;28;20205;-49
2023/08/09 04:38:16;;;;;;;10.13;8.70;;;;;;;;;;5030888;28;20315;-50
2023/08/09 04:40:42;;;;;;;8.93;8.00;;;;;;;;;;5030765;28;20278;-49
2023/08/09 04:43:08;;;;;;;11.97;9.50;;;;;;;;;;5030840;28;20200;-49
2023/08/09 04:45:34;;;;;;;9.80;8.07;;;;;;;;;;5030513;28;20627;-49
2023/08/09 04:48:02;;;;;;;10.07;9.07;;;;;;;;;;5030632;28;20239;-49
2023/08/09 04:50:29;;;;;;;8.40;7.50;;;;;;;;;;5030394;28;20276;-49
2023/08/09 04:52:56;;;;;;;11.13;7.73;;;;;;;;;;5030575;28;20217;-49
2023/08/09 04:55:22;;;;;;;10.60;8.43;;;;;;;;;;5030739;28;20197;-49
2023/08/09 04:57:48;;;;;;;10.00;8.87;;;;;;;;;;5030324;28;20236;-49
2023/08/09 05:00:15;;;;;;;11.00;9.23;;;;;;;;;;5030405;28;20682;-49
2023/08/09 05:02:41;;;;;;;10.00;8.97;;;;;;;;;;5030589;28;20254;-49
2023/08/09 05:05:08;;;;;;;11.40;8.57;;;;;;;;;;5034218;28;20573;-49
2023/08/09 05:07:36;;;;;;;9.03;8.13;;;;;;;;;;5034075;28;20197;-49
2023/08/09 05:10:03;;;;;;;10.73;9.10;;;;;;;;;;5034087;28;20216;-49
2023/08/09 05:12:29;;;;;;;9.10;8.10;;;;;;;;;;5033948;28;20192;-49
2023/08/09 05:14:55;;;;;;;9.87;8.07;;;;;;;;;;5033952;28;20209;-50
2023/08/09 05:17:21;;;;;;;8.80;7.90;;;;;;;;;;5033786;28;20557;-49
2023/08/09 05:19:47;;;;;;;9.80;7.90;;;;;;;;;;5033787;28;20201;-49
2023/08/09 05:22:13;;;;;;;9.27;8.13;;;;;;;;;;5033713;28;20255;-49
2023/08/09 05:24:41;;;;;;;8.70;7.53;;;;;;;;;;5033436;28;20237;-49
2023/08/09 05:27:07;;;;;;;8.60;7.80;;;;;;;;;;5033962;28;20294;-49
2023/08/09 05:29:33;;;;;;;9.30;7.57;;;;;;;;;;5033567;28;20193;-49
2023/08/09 05:31:59;;;;;;;10.63;7.77;;;;;;;;;;5033648;28;20387;-49
2023/08/09 05:34:25;;;;;;;8.87;7.97;;;;;;;;;;5033550;28;20204;-49
2023/08/09 05:36:51;;;;;;;11.90;8.30;;;;;;;;;;5033418;28;20204;-49
2023/08/09 05:39:19;;;;;;;10.17;8.47;;;;;;;;;;5033590;28;20224;-49
2023/08/09 05:41:47;;;;;;;9.00;8.10;;;;;;;;;;5033312;28;20228;-49
2023/08/09 05:44:13;;;;;;;8.77;7.97;;;;;;;;;;5033484;28;20207;-50
2023/08/09 05:46:39;;;;;;;9.27;7.67;;;;;;;;;;5033314;28;20275;-50
2023/08/09 05:49:05;;;;;;;8.17;7.40;;;;;;;;;;5033396;28;20207;-49
2023/08/09 05:51:31;;;;;;;8.70;7.80;;;;;;;;;;5033087;28;20280;-49
2023/08/09 05:53:57;;;;;;;8.93;7.70;;;;;;;;;;5033181;28;20607;-49
2023/08/09 05:56:24;;;;;;;7.37;6.67;;;;;;;;;;5033133;28;20762;-49
2023/08/09 05:58:51;;;;;;;7.97;7.20;;;;;;;;;;5033089;28;20221;-49
2023/08/09 06:01:17;;;;;;;11.27;7.93;;;;;;;;;;5033101;28;20278;-49
2023/08/09 06:03:43;;;;;;;7.40;6.70;;;;;;;;;;5032847;28;20278;-49
2023/08/09 06:06:10;;;;;;;8.50;7.27;;;;;;;;;;5033059;28;20258;-49
2023/08/09 06:08:37;;;;;;;8.57;7.13;;;;;;;;;;5032972;28;20205;-49
2023/08/09 06:11:03;;;;;;;7.83;7.03;;;;;;;;;;5032791;28;20610;-49
2023/08/09 06:13:29;;;;;;;8.57;7.13;;;;;;;;;;5032726;28;20197;-49
2023/08/09 06:15:56;;;;;;;7.57;6.77;;;;;;;;;;5031934;28;20197;-49
2023/08/09 06:18:23;;;;;;;7.33;6.63;;;;;;;;;;5032589;28;20232;-50
2023/08/09 06:20:49;;;;;;;7.27;5.90;;;;;;;;;;5032757;28;20714;-50
2023/08/09 06:23:15;;;;;;;6.57;5.97;;;;;;;;;;5032678;28;20217;-49
2023/08/09 06:25:41;;;;;;;5.87;5.30;;;;;;;;;;5032295;28;20614;-49
2023/08/09 06:28:07;;;;;;;6.73;4.87;;;;;;;;;;5032558;28;20555;-50
2023/08/09 06:30:34;;;;;;;6.03;5.40;;;;;;;;;;5032543;28;20280;-50
2023/08/09 06:33:02;;;;;;;6.00;4.73;;;;;;;;;;5032140;28;20656;-49
2023/08/09 06:35:28;;;;;;;5.63;5.13;;;;;;;;;;5032158;28;20243;-50
2023/08/09 06:37:54;;;;;;;6.10;4.73;;;;;;;;;;5032108;28;20221;-49
2023/08/09 06:40:20;;;;;;;6.10;4.27;;;;;;;;;;5032211;28;20201;-50
2023/08/09 06:42:46;;;;;;;5.07;4.27;;;;;;;;;;5032163;28;20200;-50
2023/08/09 06:45:12;;;;;;;5.00;4.07;;;;;;;;;;5032044;28;20658;-50
2023/08/09 06:47:38;;;;;;;4.53;4.07;;;;;;;;;;5031902;28;20200;-50
2023/08/09 06:50:06;;;;;;;5.03;3.50;;;;;;;;;;5032240;28;20250;-50
2023/08/09 06:52:33;;;;;;;4.50;3.90;;;;;;;;;;5032055;28;20235;-50
2023/08/09 06:54:59;;;;;;;4.17;3.33;;;;;;;;;;5032026;28;20203;-50
2023/08/09 06:57:25;;;;;;;3.90;3.43;;;;;;;;;;5031778;28;20308;-50
2023/08/09 06:59:52;;;;;;;5.17;3.30;;;;;;;;;;5031994;28;20199;-49
2023/08/09 07:02:19;;;;;;;5.77;2.63;;;;;;;;;;5031802;28;20263;-50
2023/08/09 07:04:45;;;;;;;3.40;3.10;;;;;;;;;;5031742;28;20279;-50
2023/08/09 07:07:12;;;;;;;3.20;2.90;;;;;;;;;;5031790;28;20297;-49
2023/08/09 07:09:38;;;;;;;4.40;2.70;;;;;;;;;;5031684;28;20209;-49
2023/08/09 07:12:05;;;;;;;3.13;2.40;;;;;;;;;;5031825;28;20229;-49
2023/08/09 07:14:31;;;;;;;5.80;2.67;;;;;;;;;;5031793;28;20300;-49
2023/08/09 07:16:57;;;;;;;3.37;2.40;;;;;;;;;;5031511;28;20201;-50
2023/08/09 07:19:23;;;;;;;3.47;2.50;;;;;;;;;;5031838;28;20190;-50
2023/08/09 07:21:49;;;;;;;3.70;2.27;;;;;;;;;;5031509;28;20221;-50
2023/08/09 07:24:16;;;;;;;3.53;2.43;;;;;;;;;;5031301;28;20273;-50
2023/08/09 07:26:42;;;;;;;2.67;2.13;;;;;;;;;;5031243;28;20205;-50
2023/08/09 07:29:08;;;;;;;2.83;2.17;;;;;;;;;;5031635;28;20194;-50
2023/08/09 07:31:35;;;;;;;2.27;1.80;;;;;;;;;;5031452;28;20194;-50
2023/08/09 07:34:01;;;;;;;3.97;1.93;;;;;;;;;;5031254;28;20669;-50
2023/08/09 07:36:27;;;;;;;3.07;2.20;;;;;;;;;;5031320;28;20215;-50
2023/08/09 07:38:53;;;;;;;4.70;2.10;;;;;;;;;;5031030;28;20605;-49
2023/08/09 07:41:21;;;;;;;2.30;1.83;;;;;;;;;;5031388;28;20290;-48
2023/08/09 07:43:48;;;;;;;3.20;1.60;;;;;;;;;;5030872;28;20197;-50
2023/08/09 07:46:14;;;;;;;3.80;2.03;;;;;;;;;;5031137;28;20208;-49
2023/08/09 07:48:41;;;;;;;8.63;1.93;;;;;;;;;;5030882;28;20257;-50
2023/08/09 07:51:11;;;;;;;3.47;1.63;;;;;;;;;;5031362;28;20196;-48
2023/08/09 07:53:37;;;;;;;3.67;1.80;;;;;;;;;;5031067;28;20207;-48
2023/08/09 07:56:04;;;;;;;3.23;1.93;;;;;;;;;;5031212;28;20614;-49
2023/08/09 07:58:31;;;;;;;4.07;1.90;;;;;;;;;;5030888;28;20232;-49
2023/08/09 08:00:57;;;;;;;5.90;1.97;;;;;;;;;;5030830;28;20504;-49
2023/08/09 08:03:23;;;;;;;3.23;1.70;;;;;;;;;;5031077;28;20280;-49
2023/08/09 08:05:49;;;;;;;2.17;1.57;;;;;;;;;;5030897;28;20212;-49
2023/08/09 08:08:17;;;;;;;3.23;1.60;;;;;;;;;;5030850;28;20212;-49
2023/08/09 08:10:43;;;;;;;2.77;1.70;;;;;;;;;;5030619;28;20197;-50
2023/08/09 08:13:09;;;;;;;3.70;1.80;;;;;;;;;;5030835;28;20196;-49
2023/08/09 08:15:37;;;;;;;3.13;1.53;;;;;;;;;;5030887;28;20204;-49
2023/08/09 08:18:03;;;;;;;3.80;1.73;;;;;;;;;;5030379;28;20225;-50
2023/08/09 08:20:29;;;;;;;4.03;1.70;;;;;;;;;;5030759;28;20204;-49
2023/08/09 08:22:55;;;;;;;2.93;1.50;;;;;;;;;;5030617;28;20224;-49
2023/08/09 08:25:21;;;;;;;3.55;1.80;;;;;;;;;;5026951;28;20232;-49
2023/08/09 08:27:47;;;;;;;3.73;1.50;;;;;;;;;;5028823;28;20235;-50
2023/08/09 08:30:14;;;;;;;2.53;1.50;;;;;;;;;;5030396;28;20209;-50
2023/08/09 08:32:41;;;;;;;2.37;1.70;;;;;;;;;;5030311;28;20557;-50
2023/08/09 08:35:11;;;;;;;1.70;1.43;;;;;;;;;;5030507;28;20204;-50
2023/08/09 08:37:38;;;;;;;8.00;1.53;;;;;;;;;;5030541;28;20236;-49
2023/08/09 08:40:07;;;;;;;2.90;1.60;;;;;;;;;;5034526;28;20200;-50
2023/08/09 08:42:33;;;;;;;2.00;1.47;;;;;;;;;;5034569;28;20567;-50
2023/08/09 08:45:00;;;;;;;2.20;1.40;;;;;;;;;;5034473;28;20208;-50
2023/08/09 08:47:27;;;;;;;3.53;1.43;;;;;;;;;;5034092;28;20197;-50
2023/08/09 08:49:56;;;;;;;2.87;1.70;;;;;;;;;;5034048;28;20208;-50
2023/08/09 08:52:25;;;;;;;1.40;1.30;;;;;;;;;;5034479;28;20196;-50
2023/08/09 08:54:51;;;;;;;3.97;1.50;;;;;;;;;;5016846;28;20204;-50
2023/08/09 08:57:17;;;;;;;1.97;1.67;;;;;;;;;;5034292;28;20201;-50
2023/08/09 08:59:43;;;;;;;3.23;1.67;;;;;;;;;;5034205;28;20219;-50
2023/08/09 09:02:09;;;;;;;2.57;1.50;;;;;;;;;;5034262;28;20663;-50
2023/08/09 09:04:38;;;;;;;2.57;1.70;;;;;;;;;;5034386;28;20200;-50
2023/08/09 09:07:06;;;;;;;4.67;1.47;;;;;;;;;;5034298;28;20205;-50
2023/08/09 09:09:32;;;;;;;2.27;1.47;;;;;;;;;;5033824;28;20606;-50
2023/08/09 09:12:00;;;;;;;2.40;1.40;;;;;;;;;;5033891;28;20197;-50
2023/08/09 09:14:26;;;;;;;1.90;1.60;;;;;;;;;;5033690;28;20586;-50
2023/08/09 09:16:52;;;;;;;1.97;1.30;;;;;;;;;;5033804;28;20235;-50
2023/08/09 09:19:19;;;;;;;3.23;1.50;;;;;;;;;;5033726;28;20236;-50
2023/08/09 09:21:45;;;;;;;2.43;1.57;;;;;;;;;;5033570;28;20215;-50
2023/08/09 09:24:13;;;;;;;2.73;1.27;;;;;;;;;;5033546;28;20233;-50
2023/08/09 09:26:39;;;;;;;1.87;1.60;;;;;;;;;;5033528;28;20296;-50
2023/08/09 09:29:07;;;;;;;2.07;1.60;;;;;;;;;;5033773;28;20213;-50
2023/08/09 09:31:39;;;;;;;2.60;1.60;;;;;;;;;;5033503;28;20359;-50
2023/08/09 09:34:06;;;;;;;1.50;1.40;;;;;;;;;;5033736;28;20205;-50
2023/08/09 09:36:32;;;;;;;3.50;1.30;;;;;;;;;;5033606;28;20202;-50
2023/08/09 09:38:59;;;;;;;;;;;;;;;;;;5033790;28;20313;-51
2023/08/09 09:41:25;;;;;;;;;;;;;;;;;;5033840;28;19905;-51
2023/08/09 09:43:52;;;;;;;4.40;1.47;;;;;;;;;;5033560;28;20358;-50
2023/08/09 09:46:19;;;;;;;3.57;1.70;;;;;;;;;;5033390;28;20742;-50
2023/08/09 09:48:47;;;;;;;1.60;1.50;;;;;;;;;;5032991;28;20190;-48
2023/08/09 09:51:13;;;;;;;3.03;1.50;;;;;;;;;;5030971;28;20568;-48
2023/08/09 09:53:40;;;;;;;1.47;1.10;;;;;;;;;;5033066;28;20197;-49
2023/08/09 09:56:05;;;;;;;2.13;1.40;;;;;;;;;;5033217;28;20201;-49
2023/08/09 09:58:32;;;;;;;3.07;1.57;;;;;;;;;;5032920;28;20277;-49
2023/08/09 10:01:01;;;;;;;1.47;1.13;;;;;;;;;;5032920;28;20266;-48
2023/08/09 10:03:28;;;;;;;3.10;1.50;;;;;;;;;;5032687;28;20284;-49
2023/08/09 10:05:55;;;;;;;1.93;1.57;;;;;;;;;;5032679;28;20193;-50
2023/08/09 10:08:25;;;;;;;4.13;1.37;;;;;;;;;;5033124;28;20194;-49
2023/08/09 10:10:53;;;;;;;1.93;1.43;;;;;;;;;;5032788;28;20674;-49
2023/08/09 10:13:21;;;;;;;3.13;1.90;;;;;;;;;;5032731;28;20260;-49
2023/08/09 10:15:50;;;;;;;2.10;1.33;;;;;;;;;;5032687;28;20668;-49
2023/08/09 10:18:19;;;;;;;3.33;1.30;;;;;;;;;;5032452;28;20226;-49
2023/08/09 10:20:47;;;;;;;2.53;1.30;;;;;;;;;;5032562;28;20210;-50
2023/08/09 10:23:19;;;;;;;2.93;2.63;;;;;;;;;;5032516;28;20251;-50
2023/08/09 10:25:46;;;;;;;1.63;1.13;;;;;;;;;;5031866;28;20250;-50
2023/08/09 10:28:12;;;;;;;2.37;1.40;;;;;;;;;;5032692;28;20284;-51
2023/08/09 10:30:44;;;;;;;1.47;1.30;;;;;;;;;;5032497;28;20281;-50
2023/08/09 10:33:10;;;;;;;2.10;1.10;;;;;;;;;;5032438;28;20293;-50
2023/08/09 10:35:48;;;;;;;1.50;1.10;;;;;;;;;;5032489;28;20328;-51
2023/08/09 10:38:15;;;;;;;1.60;1.10;;;;;;;;;;5032260;28;20648;-51
2023/08/09 10:40:41;;;;;;;1.50;1.33;;;;;;;;;;5032205;28;20201;-52
2023/08/09 10:43:08;;;;;;;1.20;1.10;;;;;;;;;;5032256;28;20331;-51
2023/08/09 10:45:34;;;;;;;2.13;1.30;;;;;;;;;;5032315;28;20678;-48
2023/08/09 10:48:16;;;;;;;1.47;1.37;;;;;;;;;;5032203;28;20204;-51
2023/08/09 10:50:42;;;;;;;1.57;1.10;;;;;;;;;;5032276;28;20679;-52
2023/08/09 10:53:09;;;;;;;1.60;1.13;;;;;;;;;;5032420;28;20201;-52
2023/08/09 10:55:35;;;;;;;2.17;1.10;;;;;;;;;;5032324;28;20295;-52
2023/08/09 10:58:02;;;;;;;3.47;1.17;;;;;;;;;;5032223;28;20718;-52
2023/08/09 11:00:36;;;;;;;2.60;1.13;;;;;;;;;;5032043;28;20205;-52
2023/08/09 11:03:04;;;;;;;2.17;1.30;;;;;;;;;;5031966;28;20207;-52
2023/08/09 11:05:30;;;;;;;1.57;1.30;;;;;;;;;;5031864;28;20560;-52
2023/08/09 11:07:56;;;;;;;2.87;2.10;;;;;;;;;;5031693;28;20615;-53
2023/08/09 11:10:34;;;;;;;1.37;1.00;;;;;;;;;;5032069;28;20193;-53
2023/08/09 11:13:04;;;;;;;1.67;1.27;;;;;;;;;;5029746;28;20205;-53
2023/08/09 11:15:31;;;;;;;1.87;1.30;;;;;;;;;;5031659;28;20268;-54
2023/08/09 11:17:57;;;;;;;2.00;1.20;;;;;;;;;;5025677;28;20485;-51
2023/08/09 11:20:23;;;;;;;2.53;1.23;;;;;;;;;;5031158;28;20216;-51
2023/08/09 11:22:53;;;;;;;2.30;1.10;;;;;;;;;;5031312;28;20777;-52
2023/08/09 11:25:19;;;;;;;1.10;1.00;;;;;;;;;;5031581;28;20247;-53
2023/08/09 11:27:47;;;;;;;1.13;1.00;;;;;;;;;;5030731;28;20569;-53
2023/08/09 11:30:14;;;;;;;1.93;1.40;;;;;;;;;;5031172;28;20785;-53
2023/08/09 11:32:40;;;;;;;5.47;4.97;;;;;;;;;;5030881;28;20198;-53
2023/08/09 11:35:07;;;;;;;2.13;1.20;;;;;;;;;;5031578;28;20264;-53
2023/08/09 11:37:33;;;;;;;1.70;0.87;;;;;;;;;;5031312;28;20207;-53
2023/08/09 11:39:59;;;;;;;1.40;1.17;;;;;;;;;;5031078;28;20198;-53
2023/08/09 11:42:25;;;;;;;1.33;0.87;;;;;;;;;;5031142;28;20226;-52
2023/08/09 11:44:52;;;;;;;1.27;1.03;;;;;;;;;;5030834;28;20207;-51
2023/08/09 11:47:18;;;;;;;1.10;1.00;;;;;;;;;;5030931;28;20286;-53
2023/08/09 11:49:44;;;;;;;2.70;1.20;;;;;;;;;;5027283;28;20279;-53
2023/08/09 11:52:16;;;;;;;2.17;1.07;;;;;;;;;;5031088;28;20203;-53
2023/08/09 11:54:42;;;;;;;1.10;0.97;;;;;;;;;;5031073;28;20724;-52
2023/08/09 11:57:08;;;;;;;3.67;1.07;;;;;;;;;;5031258;28;20196;-52
2023/08/09 11:59:38;;;;;;;1.30;0.90;;;;;;;;;;5031045;28;20697;-52
2023/08/09 12:02:06;;;;;;;2.10;1.20;;;;;;;;;;5030981;28;20200;-53
2023/08/09 12:04:33;;;;;;;1.40;1.07;;;;;;;;;;5030951;28;20671;-53
2023/08/09 12:07:02;;;;;;;2.13;1.10;;;;;;;;;;5030861;28;20254;-53
2023/08/09 12:09:31;;;;;;;2.07;1.87;;;;;;;;;;5030898;28;20216;-52
2023/08/09 12:12:03;;;;;;;2.13;1.13;;;;;;;;;;5029629;28;20201;-53
2023/08/09 12:14:29;;;;;;;2.30;0.90;;;;;;;;;;5030017;28;20537;-52
2023/08/09 12:16:55;;;;;;;4.03;1.30;;;;;;;;;;5030573;28;20777;-52
2023/08/09 12:19:22;;;;;;;1.97;1.10;;;;;;;;;;5031012;28;20221;-53
2023/08/09 12:21:48;;;;;;;0.80;0.73;;;;;;;;;;5030785;28;20231;-52
2023/08/09 12:24:14;;;;;;;1.97;1.17;;;;;;;;;;5030631;28;20236;-52
2023/08/09 12:26:40;;;;;;;1.00;0.90;;;;;;;;;;5030712;28;20210;-52
2023/08/09 12:29:07;;;;;;;1.50;1.17;;;;;;;;;;5030909;28;20192;-51
2023/08/09 12:31:33;;;;;;;1.77;1.63;;;;;;;;;;5030748;28;20258;-52
2023/08/09 12:33:59;;;;;;;1.27;1.10;;;;;;;;;;5030535;28;20286;-51
2023/08/09 12:36:26;;;;;;;1.63;1.03;;;;;;;;;;5030727;28;20196;-51
2023/08/09 12:38:52;;;;;;;2.50;1.30;;;;;;;;;;5030587;28;20231;-50
2023/08/09 12:41:18;;;;;;;2.93;1.30;;;;;;;;;;5030754;28;20300;-50
2023/08/09 12:43:44;;;;;;;1.47;1.10;;;;;;;;;;5030511;28;20210;-50
2023/08/09 12:46:10;;;;;;;1.20;1.10;;;;;;;;;;5030402;28;20204;-50
2023/08/09 12:48:36;;;;;;;1.33;1.00;;;;;;;;;;5030336;28;20202;-50
2023/08/09 12:51:02;;;;;;;1.90;1.33;;;;;;;;;;5030526;28;20207;-50
2023/08/09 12:53:30;;;;;;;2.13;1.20;;;;;;;;;;5030521;28;20200;-51
2023/08/09 12:55:56;;;;;;;1.60;1.17;;;;;;;;;;5030396;28;20207;-50
2023/08/09 12:58:22;;;;;;;2.30;1.73;;;;;;;;;;5030617;28;20227;-50
2023/08/09 13:00:48;;;;;;;2.57;1.00;;;;;;;;;;5030241;28;20234;-50
2023/08/09 13:03:14;;;;;;;1.83;1.00;;;;;;;;;;5030400;28;20205;-51
2023/08/09 13:05:40;;;;;;;1.40;1.20;;;;;;;;;;5030267;28;20200;-50
2023/08/09 13:08:06;;;;;;;1.43;0.80;;;;;;;;;;5030564;28;20216;-50
2023/08/09 13:10:33;;;;;;;2.30;0.97;;;;;;;;;;5030567;28;20196;-50
2023/08/09 13:12:59;;;;;;;1.53;1.17;;;;;;;;;;5030108;28;20207;-50
2023/08/09 13:15:25;;;;;;;1.60;1.10;;;;;;;;;;5030425;28;20225;-50
2023/08/09 13:17:51;;;;;;;1.27;1.17;;;;;;;;;;5030089;28;20222;-50
2023/08/09 13:20:17;;;;;;;1.37;1.10;;;;;;;;;;5030233;28;20562;-50
2023/08/09 13:22:43;;;;;;;1.13;1.03;;;;;;;;;;5027964;28;20225;-51
2023/08/09 13:25:11;;;;;;;1.67;1.07;;;;;;;;;;5032718;28;20251;-50
2023/08/09 13:27:38;;;;;;;1.50;1.00;;;;;;;;;;5032173;28;20203;-50
2023/08/09 13:30:05;;;;;;;1.77;1.37;;;;;;;;;;5033441;28;20210;-51
2023/08/09 13:32:32;;;;;;;1.60;1.17;;;;;;;;;;5033880;28;20199;-50
2023/08/09 13:34:58;;;;;;;1.10;1.00;;;;;;;;;;5033354;28;20721;-50
2023/08/09 13:37:24;;;;;;;2.13;1.03;;;;;;;;;;5033892;28;20198;-50
2023/08/09 13:39:51;;;;;;;1.70;1.10;;;;;;;;;;5033117;28;20731;-50
2023/08/09 13:42:17;;;;;;;1.07;0.87;;;;;;;;;;5033274;28;20697;-51
2023/08/09 13:44:44;;;;;;;2.10;1.13;;;;;;;;;;5033441;28;20200;-50
2023/08/09 13:47:12;;;;;;;1.60;1.10;;;;;;;;;;5030659;28;20564;-50
2023/08/09 13:49:38;;;;;;;1.53;1.00;;;;;;;;;;5033444;28;20208;-51
2023/08/09 13:52:04;;;;;;;0.93;0.90;;;;;;;;;;5033389;28;20667;-51
2023/08/09 13:54:30;;;;;;;3.43;1.27;;;;;;;;;;5033460;28;20213;-50
2023/08/09 13:56:57;;;;;;;3.77;1.17;;;;;;;;;;5033088;28;20749;-50
2023/08/09 13:59:23;;;;;;;2.47;1.30;;;;;;;;;;5033335;28;20232;-51
2023/08/09 14:01:50;;;;;;;2.60;1.10;;;;;;;;;;5033130;28;20204;-51
2023/08/09 14:04:16;;;;;;;3.63;1.40;;;;;;;;;;5033122;28;20206;-51
2023/08/09 14:06:43;;;;;;;3.07;1.10;;;;;;;;;;5031082;28;20200;-51
2023/08/09 14:09:09;;;;;;;3.70;1.23;;;;;;;;;;5032935;28;20619;-51
2023/08/09 14:11:35;;;;;;;1.43;1.00;;;;;;;;;;5033043;28;20230;-51
2023/08/09 14:14:01;;;;;;;1.63;1.07;;;;;;;;;;5032568;28;20228;-51
2023/08/09 14:16:27;;;;;;;3.67;1.00;;;;;;;;;;5032508;28;20622;-52
2023/08/09 14:18:54;;;;;;;1.80;1.10;;;;;;;;;;5032359;28;20319;-52
2023/08/09 14:21:20;;;;;;;1.20;1.10;;;;;;;;;;5032595;28;20200;-52
2023/08/09 14:23:46;;;;;;;2.80;1.80;;;;;;;;;;5032074;28;20237;-52
2023/08/09 14:26:13;;;;;;;1.60;1.20;;;;;;;;;;5032667;28;20201;-52
2023/08/09 14:28:39;;;;;;;2.07;1.20;;;;;;;;;;5032142;28;20274;-52
2023/08/09 14:31:05;;;;;;;2.40;1.20;;;;;;;;;;5032355;28;20612;-52
2023/08/09 14:33:31;;;;;;;3.63;1.17;;;;;;;;;;5032459;28;20282;-52
2023/08/09 14:35:59;;;;;;;1.50;1.20;;;;;;;;;;5031674;28;20211;-51
2023/08/09 14:38:25;;;;;;;1.90;1.23;;;;;;;;;;5032259;28;20224;-52
2023/08/09 14:40:51;;;;;;;4.43;1.33;;;;;;;;;;5032350;28;20558;-52